Weather observations for the past three days for
Grants, Grants-Milan Municipal Airport
Imperial (Metric)
Date Time (mdt) Wind (mph) Vis. (mi.) Weather Sky Cond. Temperature (ºF) Relative Humidity Wind Chill (°F) Heat Index (°F) Pressure Precipitation (in)
Air Dwpt 6 hour altimeter (in) sea level (mb) 1 hr 3 hr 6 hr
Max. Min.
02 14:35 SE 6 10.00 Fair CLR 59.2 28.4 31% 30.26 0.0
02 14:15 E 8 G 16 10.00 NULL NULL 57.9 29.1 33% 30.27 0.0
02 13:35 Calm 10.00 Fair CLR 57 26.2 31% 30.28 0.0
02 13:15 W 5 10.00 Partly Cloudy SCT080 56.3 27 32% 30.29 0.0
02 12:55 NE 6 10.00 Overcast SCT070 OVC080 51.8 29.8 43% 30.29 0.0
02 12:35 N 13 10.00 Overcast BKN075 OVC090 48.9 31.1 50% 44 30.31 0.0
02 12:15 NE 14 G 21 10.00 Overcast SCT055 BKN065 OVC085 48.2 30.6 51% 43 30.31 0.0
02 11:55 NE 21 G 26 10.00 Overcast and Breezy SCT046 BKN060 OVC095 49.5 28.4 55.6 40.5 44% 43 30.31 0.0
02 11:35 NE 14 G 20 10.00 Overcast SCT044 SCT070 OVC100 53.8 29.7 40% 30.31 0.0
02 11:15 SE 7 10.00 Overcast OVC100 54.3 31.8 42% 30.31 0.0
02 10:55 SE 12 10.00 Partly Cloudy SCT075 SCT090 54.9 32.2 42% 30.31 0.0
02 10:35 SE 9 10.00 Mostly Cloudy SCT032 BKN090 53.1 33.4 47% 30.31 0.0
02 10:15 S 8 10.00 Overcast OVC090 50.4 33.8 53% 30.3 0.0
02 09:55 S 7 10.00 Overcast OVC090 48 33.8 58% 45 30.3 0.0
02 09:35 SE 9 10.00 Overcast SCT022 OVC090 47.3 33.8 60% 43 30.3 0.0
02 09:15 SE 9 10.00 Mostly Cloudy SCT022 BKN090 47.7 34 59% 44 30.3 0.0
02 08:55 S 7 10.00 Partly Cloudy SCT020 SCT080 47.3 34.2 60% 44 30.3 0.0
02 08:35 SE 13 10.00 Partly Cloudy SCT027 45.9 34.2 64% 41 30.3 0.0
02 08:15 SE 13 10.00 Overcast OVC027 44.4 34.7 69% 39 30.29 0.0
02 07:55 SE 12 10.00 Mostly Cloudy BKN027 43.5 34.7 71% 38 30.29 0.0
02 07:35 S 10 10.00 Mostly Cloudy SCT027 BKN090 42.4 34.7 74% 37 30.28 0.0
02 07:15 S 7 10.00 Mostly Cloudy BKN090 41.2 34.2 76% 37 30.28 0.0
02 06:55 S 9 10.00 Mostly Cloudy BKN090 41 34.2 77% 36 30.27 0.0
02 06:35 S 9 10.00 Fair CLR 40.5 33.8 77% 35 30.26 0.0
02 06:15 S 10 10.00 Fair CLR 41 33.8 76% 35 30.26 0.0
02 05:55 S 12 10.00 Partly Cloudy SCT024 41.2 33.8 44.6 41.2 75% 35 30.25 0.0
02 05:35 S 12 10.00 Mostly Cloudy BKN024 41.9 34 74% 36 30.25 0.0
02 05:15 S 12 10.00 Overcast OVC024 41.9 34.2 74% 36 30.25 0.0
02 04:55 S 10 10.00 Mostly Cloudy BKN022 41.9 34 74% 36 30.24 0.0
02 04:35 S 8 10.00 Overcast OVC022 42.4 34.2 73% 38 30.24 0.0
02 04:15 S 9 10.00 Overcast OVC020 42.4 34.2 73% 38 30.24 0.0
02 03:55 S 8 10.00 Overcast OVC020 42.4 33.8 72% 38 30.24 0.0
02 03:35 S 10 10.00 Overcast OVC020 42.6 33.8 71% 37 30.24 0.0
02 03:15 SE 12 10.00 Overcast OVC020 42.3 33.8 72% 36 30.24 0.0
02 02:55 SE 13 10.00 Overcast OVC020 42.4 33.8 72% 36 30.24 0.0
02 02:35 S 10 10.00 Mostly Cloudy BKN020 BKN120 42.8 33.8 71% 38 30.24 0.0
02 02:15 SE 12 10.00 Mostly Cloudy SCT020 BKN120 42.8 33.8 71% 37 30.23 0.0
02 01:55 SE 12 G 18 10.00 Mostly Cloudy BKN120 42.6 33.8 71% 37 30.23 0.0
02 01:35 S 10 10.00 Overcast OVC110 42.4 33.8 72% 37 30.23 0.0
02 01:15 S 8 10.00 Overcast OVC110 43.5 33.8 69% 39 30.23 0.0
02 00:55 SE 12 10.00 Overcast OVC120 44.1 34.3 69% 39 30.23 0.0
02 00:35 SE 14 10.00 Overcast OVC120 44.2 34.7 69% 38 30.24 0.0
02 00:15 SE 16 10.00 Overcast OVC110 44.6 34.7 68% 38 30.23 0.0
01 23:55 SE 14 10.00 Mostly Cloudy SCT018 SCT065 BKN100 44.6 34.7 54 44.6 68% 39 30.23 0.0
01 23:35 SE 13 G 16 10.00 Mostly Cloudy SCT016 SCT070 BKN100 44.6 35.4 70% 39 30.23 0.0
01 23:15 SE 14 10.00 Overcast SCT016 BKN100 OVC120 45.7 37.4 73% 40 30.23 0.0
01 22:55 SE 14 G 21 10.00 Mostly Cloudy SCT021 SCT070 BKN120 46.4 37.4 71% 41 30.23 0.0
01 22:35 SE 16 G 24 10.00 Overcast SCT021 BKN070 OVC090 46.8 36.7 68% 41 30.22 0.0
01 22:15 SE 17 10.00 Overcast OVC090 46.9 35.4 64% 41 30.22 0.0
01 21:55 SE 16 10.00 Overcast OVC090 47.5 35.6 64% 42 30.2 0.0
01 21:35 SE 15 10.00 Overcast OVC100 47.7 34.7 61% 42 30.2 0.0
01 21:15 S 12 10.00 Overcast OVC110 48.2 33.6 57% 44 30.18 0.0
01 20:55 SE 14 10.00 Mostly Cloudy BKN110 48.2 33.8 58% 43 30.16 0.0
01 20:35 SE 10 G 17 10.00 Fair CLR 48.2 34.9 60% 44 30.15 0.0
01 20:15 SE 13 G 21 10.00 Partly Cloudy SCT070 SCT080 SCT090 48.4 34.2 58% 44 30.15 0.0
01 19:55 SE 15 G 23 10.00 Overcast SCT050 BKN085 OVC100 49.5 34.7 57% 44 30.14 0.0
01 19:35 SE 13 G 18 10.00 Overcast SCT050 BKN070 OVC100 50.5 34.7 55% 30.14 0.0
01 19:15 S 8 10.00 Overcast SCT075 OVC100 51.3 34.2 52% 30.13 0.0
01 18:55 SE 10 10.00 Overcast SCT080 OVC090 51.8 33.1 49% 30.12 0.0
01 18:35 E 13 10.00 Overcast SCT070 OVC090 52.9 33.1 47% 30.11 0.0
01 18:15 E 14 G 18 10.00 Overcast OVC090 53.8 32.5 45% 30.1 0.0
01 17:55 SE 18 G 23 10.00 Mostly Cloudy BKN100 BKN120 53.6 32 63.9 53.6 44% 30.08 0.0
01 17:35 SE 18 G 24 10.00 Overcast OVC110 54.9 32.9 43% 30.07 0.0
01 17:15 SE 18 G 24 10.00 Overcast OVC110 55.8 32.7 42% 30.07 0.0
01 16:55 E 18 G 25 10.00 Overcast SCT070 SCT085 OVC100 57 32.2 39% 30.07 0.0
01 16:35 SE 16 G 22 10.00 Overcast OVC085 58.6 29.8 34% 30.06 0.0
01 16:15 S 9 10.00 Mostly Cloudy BKN085 BKN110 59.7 21.9 23% 30.05 0.0
01 15:55 S 8 G 17 10.00 Overcast SCT075 OVC090 60.1 19.9 21% 30.04 0.0
01 15:35 SW 8 10.00 Overcast SCT075 OVC090 60.1 17.4 19% 30.06 0.0
01 15:15 S 5 10.00 Mostly Cloudy BKN100 60.8 19.4 20% 30.06 0.0
01 14:55 SE 9 10.00 Partly Cloudy SCT090 63.7 23.5 22% 30.06 0.0
01 14:35 Calm 10.00 Fair CLR 61.2 25.2 25% 30.07 0.0
01 14:15 SE 6 10.00 Fair CLR 60.6 27.3 28% 30.07 0.0
01 13:55 SE 9 10.00 Partly Cloudy SCT075 SCT090 SCT120 59.5 28.8 31% 30.07 0.0
01 13:35 S 9 10.00 Overcast SCT075 OVC090 55.9 32.9 42% 30.08 0.0
01 13:15 S 15 G 22 10.00 Overcast SCT049 SCT075 OVC100 53.8 31.5 43% 30.1 0.0
01 12:55 S 13 G 16 10.00 Overcast SCT060 SCT075 OVC090 56.3 30.7 38% 30.11 0.0
01 12:35 S 14 G 17 10.00 Overcast SCT044 SCT050 OVC100 57 31.6 38% 30.1 0.0
01 11:55 SE 8 G 17 10.00 Partly Cloudy SCT110 58.5 32 58.6 43.3 37% 30.1 0.0
01 11:35 SE 12 G 22 10.00 Fair CLR 57 32.7 40% 30.11 0.0
01 11:15 SE 12 G 20 10.00 Fair CLR 56.3 33.3 42% 30.11 0.0
01 10:55 S 12 G 21 10.00 Fair CLR 56.1 33.1 42% 30.11 0.0
01 10:35 SE 12 G 16 10.00 Fair CLR 54.1 32.9 45% 30.11 0.0
01 10:15 SE 12 G 18 10.00 Fair CLR 53.1 33.4 47% 30.12 0.0
01 09:55 SE 10 G 21 10.00 Fair CLR 51.8 34 51% 30.11 0.0
01 09:35 SE 16 G 21 10.00 Partly Cloudy SCT026 50.9 34.2 53% 30.11 0.0
01 09:15 SE 16 G 22 10.00 Mostly Cloudy BKN022 50.2 34.7 55% 30.1 0.0
01 08:55 S 13 G 17 10.00 Overcast OVC020 49.3 36.3 61% 45 30.09 0.0
01 08:35 S 12 10.00 Overcast OVC018 47.3 36.5 66% 43 30.09 0.0
01 08:15 SE 13 10.00 Overcast OVC016 46.6 36.5 68% 41 30.09 0.0
01 07:55 SE 13 10.00 Overcast BKN016 OVC021 46 36.7 70% 41 30.08 0.0
01 07:35 SE 13 10.00 Overcast OVC014 45 36.9 73% 39 30.08 0.0
01 07:15 SE 14 G 17 10.00 Overcast OVC014 45.1 37.2 74% 39 30.07 0.0
01 06:55 S 10 10.00 Overcast OVC016 44.8 36 71% 40 30.06 0.0
01 06:35 S 14 10.00 Mostly Cloudy BKN016 43.5 35.6 74% 37 30.05 0.0
01 06:15 S 9 10.00 Partly Cloudy SCT018 SCT110 43.3 34.7 72% 39 30.06 0.0
01 05:55 SE 12 10.00 Partly Cloudy SCT110 44.2 35.1 53.4 44.2 70% 39 30.04 0.0
01 05:35 S 17 G 22 10.00 Fair CLR 44.6 35.2 70% 38 30.03 0.0
01 05:15 S 15 10.00 Fair CLR 45.1 35.2 68% 39 30.03 0.0
01 04:55 S 14 G 20 10.00 Fair CLR 46.4 36 67% 41 30.03 0.0
01 04:35 SE 14 G 21 10.00 Fair CLR 46.8 36.1 67% 41 30.03 0.0
01 04:15 S 14 10.00 Fair CLR 46.8 35.1 64% 41 30.02 0.0
01 03:55 S 10 10.00 Fair CLR 47.3 33.8 60% 43 30.02 0.0
01 03:35 S 10 10.00 Fair CLR 47.8 33.8 58% 44 30.02 0.0
01 03:15 S 10 10.00 Fair CLR 48.6 32.9 55% 45 30.02 0.0
01 02:55 SE 12 10.00 Thunderstorm in Vicinity SCT100 49.3 32.9 53% 45 30.02 0.0
01 02:35 S 10 10.00 Overcast OVC100 50.2 32.2 50% 30.02 0.0
01 02:15 S 8 10.00 Overcast OVC100 51.6 30.9 45% 30.02 0.0
01 01:55 S 6 10.00 Overcast BKN090 OVC110 51.4 14.4 23% 30.02 0.0
01 01:35 W 5 10.00 Overcast OVC110 49.8 5.4 16% 49 30.02 0.0
01 01:15 SE 6 10.00 Overcast OVC110 51.1 3.9 14% 30.02 0.0
01 00:55 Calm 10.00 Overcast OVC120 52 4.6 14% 30.01 0.0
01 00:35 Calm 10.00 Overcast OVC110 51.4 4.8 15% 30.01 0.0
01 00:15 NW 5 10.00 Overcast OVC110 53.4 4.5 13% 30.01 0.0
30 23:55 N 5 10.00 Mostly Cloudy BKN120 52.7 4.5 68.2 51.6 14% 30.01 0.0
30 23:35 NW 6 10.00 Partly Cloudy SCT120 53.6 4.5 13% 30 0.0
30 23:15 NW 10 10.00 Mostly Cloudy BKN120 53.4 4.6 14% 30 0.0
30 22:55 NW 9 10.00 Mostly Cloudy BKN120 53.6 5.4 14% 30 0.0
30 22:35 NW 9 10.00 Partly Cloudy SCT120 53.2 5.9 15% 29.99 0.0
30 22:15 NW 7 10.00 Partly Cloudy SCT120 52 6.8 16% 29.99 0.0
30 21:55 N 7 10.00 Partly Cloudy SCT120 51.8 6.6 16% 29.98 0.0
30 21:35 N 6 10.00 Partly Cloudy SCT120 53.1 5.9 15% 29.98 0.0
30 21:15 NW 8 10.00 Partly Cloudy SCT110 56.1 6.8 14% 29.97 0.0
30 20:55 NW 9 10.00 Mostly Cloudy BKN120 57.6 7 13% 29.96 0.0
30 20:35 N 14 10.00 Mostly Cloudy BKN120 60.1 7.3 12% 29.94 0.0
30 20:15 N 13 10.00 Mostly Cloudy BKN120 61.3 7.7 12% 29.93 0.0
30 19:55 N 9 10.00 Fair CLR 62.8 7.7 11% 29.92 0.0
30 19:35 N 14 10.00 Partly Cloudy SCT120 64.6 7.7 10% 29.91 0.0
30 19:15 N 14 10.00 Fair CLR 65.7 7.3 10% 29.9 0.0
30 18:55 N 12 10.00 Fair CLR 65.3 6.6 10% 29.9 0.0
30 18:35 N 13 G 21 10.00 Partly Cloudy SCT120 67.1 4.1 8% 29.9 0.0
30 18:15 W 12 G 20 10.00 Partly Cloudy SCT110 67.6 3.7 8% 29.9 0.0
30 17:55 NW 9 10.00 Fair CLR 68.2 2.3 69.4 63.3 7% 29.89 0.0
30 17:35 NW 10 G 20 10.00 Fair CLR 68 4.1 8% 29.89 0.0
30 17:15 NW 8 G 12 10.00 Fair CLR 68 3.9 8% 29.89 0.0
30 16:55 NW 9 10.00 Partly Cloudy SCT120 68 5.4 8% 29.9 0.0
30 16:35 Calm 10.00 Partly Cloudy SCT120 67.1 5.5 9% 29.9 0.0
30 16:15 N 7 10.00 Partly Cloudy SCT120 67.8 6.1 9% 29.9 0.0
30 15:55 NW 13 G 21 10.00 Partly Cloudy SCT120 68.7 6.3 8% 29.91 0.0
30 15:35 NW 13 10.00 Fair CLR 68 5.9 8% 29.92 0.0
30 15:15 N 6 10.00 Fair CLR 67.5 6.6 9% 29.92 0.0
30 14:55 N 5 10.00 Fair CLR 68.2 5 8% 29.93 0.0
30 14:35 NW 5 10.00 Fair CLR 67.1 5.9 9% 29.93 0.0
30 14:15 NW 5 10.00 Fair CLR 68.9 7.2 9% 29.95 0.0
30 13:55 Calm 10.00 Fair CLR 68.5 6.6 9% 29.95 0.0
30 13:35 E 3 10.00 Fair CLR 67.1 6.8 9% 29.96 0.0
30 13:15 Calm 10.00 Fair CLR 68 7.5 9% 29.97 0.0
30 12:55 N 9 G 16 10.00 Fair CLR 66.4 7.7 10% 29.98 0.0
30 12:35 NE 5 10.00 Fair CLR 66.4 7.7 10% 29.99 0.0
30 12:15 Calm 10.00 Fair CLR 65.5 8.1 10% 30.01 0.0
30 11:55 N 6 10.00 Fair CLR 64.8 7.9 64.8 44.2 10% 30.02 0.0
30 11:35 N 8 10.00 Fair CLR 63.5 7.9 11% 30.03 0.0
30 11:15 N 5 10.00 Fair CLR 62.2 8.4 12% 30.04 0.0
30 10:55 N 5 10.00 Fair CLR 61.2 8.6 12% 30.04 0.0
30 10:35 NE 3 10.00 Fair CLR 60.1 8.6 13% 30.05 0.0
30 10:15 NE 6 10.00 Fair CLR 58.6 9.1 14% 30.05 0.0
30 09:55 NW 6 10.00 Fair CLR 56.3 9 15% 30.06 0.0
30 09:35 N 5 10.00 Fair CLR 56.3 9.1 15% 30.06 0.0
30 09:15 Calm 10.00 Partly Cloudy SCT120 55 9.5 16% 30.06 0.0
30 08:55 Calm 10.00 Partly Cloudy SCT120 53.4 9 17% 30.06 0.0
30 08:35 Calm 10.00 Fair CLR 50.9 7.3 17% 30.06 0.0
30 08:15 NW 5 10.00 Fair CLR 49.1 6.6 18% 48 30.06 0.0
30 07:55 NW 7 10.00 Fair CLR 48.9 6.8 18% 46 30.06 0.0
30 07:35 NW 6 10.00 Mostly Cloudy BKN120 47.7 6.3 18% 45 30.06 0.0
30 07:15 NW 5 10.00 Overcast OVC120 46.9 6.6 19% 45 30.06 0.0
30 06:55 NW 6 10.00 Mostly Cloudy BKN120 45.7 5.9 19% 43 30.06 0.0
30 06:35 NW 6 10.00 Mostly Cloudy BKN120 44.6 5 19% 42 30.06 0.0
30 06:15 NW 6 10.00 Overcast OVC120 44.2 4.3 19% 41 30.06 0.0
30 05:55 N 8 10.00 Overcast OVC120 44.4 3.6 52.5 43.7 18% 40 30.06 0.0
30 05:35 NW 6 10.00 Partly Cloudy SCT120 44.8 3.4 18% 42 30.06 0.0
30 05:15 NW 8 10.00 Partly Cloudy SCT120 44.6 2.5 17% 41 30.06 0.0
30 04:55 NW 6 10.00 Fair CLR 43.9 2.3 17% 41 30.06 0.0
30 04:35 W 3 10.00 Fair CLR 44.6 1.9 17% 30.06 0.0
30 04:15 Calm 10.00 Fair CLR 45.7 1.8 16% 30.06 0.0
30 03:55 Calm 10.00 Partly Cloudy SCT120 46 0.3 15% 30.05 0.0
30 03:35 NW 3 10.00 Partly Cloudy SCT120 46.9 1 15% 30.06 0.0
30 03:15 NW 5 10.00 Partly Cloudy SCT120 46.9 0.9 15% 45 30.07 0.0
30 02:55 N 5 10.00 Fair CLR 47.5 1.2 14% 46 30.06 0.0
30 02:35 N 7 10.00 Partly Cloudy SCT120 50 1.8 13% 48 30.06 0.0
30 02:15 Calm 10.00 Partly Cloudy SCT120 50 2.3 14% 30.08 0.0
30 01:55 Calm 10.00 Fair CLR 51.6 2.1 13% 30.09 0.0
30 01:35 Calm 10.00 Fair CLR 52.5 2.1 12% 30.09 0.0
30 01:15 Calm 10.00 Fair CLR 48.6 1.2 14% 30.09 0.0
30 00:55 Calm 10.00 Fair CLR 47.8 0.7 14% 30.09 0.0
30 00:35 Calm 10.00 Fair CLR 46.8 0.3 14% 30.09 0.0
30 00:15 N 3 10.00 Partly Cloudy SCT100 49.8 1.2 13% 30.09 0.0
29 23:55 NW 7 10.00 Overcast OVC110 52 1.2 68.5 48.7 12% 30.09 0.0
29 23:35 W 8 10.00 Mostly Cloudy BKN120 51.1 1 13% 30.09 0.0
29 23:15 NW 7 10.00 Mostly Cloudy BKN120 50 -0 12% 48 30.09 0.0
29 22:55 N 12 10.00 Partly Cloudy SCT120 53.6 2.3 12% 30.08 0.0
29 22:35 W 7 10.00 Fair CLR 54.7 3 12% 30.07 0.0
29 22:15 W 8 10.00 Fair CLR 53.4 2.5 12% 30.07 0.0
29 21:55 W 7 10.00 Fair CLR 57 3.2 11% 30.07 0.0
29 21:35 W 8 10.00 Fair CLR 56.5 3 11% 30.06 0.0
29 21:15 NW 6 10.00 Fair CLR 54.7 1.6 11% 30.06 0.0
29 20:55 NW 7 10.00 Fair CLR 56.1 1.9 11% 30.06 0.0
29 20:35 NW 7 10.00 Fair CLR 57.4 1.9 10% 30.05 0.0
29 20:15 NW 8 10.00 Fair CLR 60.3 3.4 10% 30.04 0.0
29 19:55 NW 9 G 17 10.00 Fair CLR 62.4 3.4 9% 30.04 0.0
29 19:35 NW 9 10.00 Fair CLR 63.9 3 9% 30.03 0.0
29 19:15 W 13 10.00 Fair CLR 64.8 3.2 8% 30.03 0.0
29 18:55 W 14 G 21 10.00 Fair CLR 65.3 1.4 8% 30.03 0.0
29 18:35 W 17 G 29 10.00 Fair CLR 67.3 1.6 7% 30.03 0.0
29 18:15 W 15 G 25 10.00 Fair CLR 68.5 1 7% 30.03 0.0
29 17:55 W 17 G 29 10.00 Fair CLR 68.4 -1.8 71.4 67.3 6% 30.04 0.0
29 17:35 W 20 G 29 10.00 Fair CLR 69.3 -1.5 6% 30.04 0.0
29 17:15 W 16 G 22 10.00 Fair CLR 69.6 -0 6% 30.02 0.0
29 16:55 W 17 G 25 10.00 Fair CLR 69.8 -1.7 6% 30.03 0.0
29 16:35 SW 20 G 30 10.00 Fair CLR 70.9 -1.8 5% 30.03 0.0
29 16:15 W 20 G 32 10.00 Fair CLR 70.3 -2.6 5% 30.04 0.0
29 15:55 W 10 G 28 10.00 Fair CLR 70.3 -1.7 5% 30.04 0.0
29 15:35 W 16 G 28 10.00 Fair CLR 70.2 -0.8 6% 30.04 0.0
29 15:15 W 14 G 28 10.00 Fair CLR 70.5 -0 6% 30.06 0.0
29 14:55 W 21 G 31 10.00 Fair and Breezy CLR 69.8 0.1 6% 30.07 0.0
Date Time (mdt) Wind (mph) Vis. (mi.) Weather Sky Cond. Air Dwpt Max. Min. Relative Humidity Wind Chill (°F) Heat Index (°F) altimeter (in) sea level (mb) 1 hr 3 hr 6 hr
6 hour
Temperature (ºF) Pressure Precipitation (in)